sensor_id;sensor_type;location;lat;lon;timestamp;pressure;altitude;pressure_sealevel;temperature;humidity
71764;BME280;59602;52.142;5.408;2024-01-25T00:02:09;102865.09;;;8.56;91.85
71764;BME280;59602;52.142;5.408;2024-01-25T00:06:01;102864.31;;;8.56;91.92
71764;BME280;59602;52.142;5.408;2024-01-25T00:12:49;102873.72;;;8.49;92.13
71764;BME280;59602;52.142;5.408;2024-01-25T00:19:44;102878.00;;;8.42;92.53
71764;BME280;59602;52.142;5.408;2024-01-25T00:23:38;102873.16;;;8.39;92.51
71764;BME280;59602;52.142;5.408;2024-01-25T00:30:32;102872.50;;;8.33;92.87
71764;BME280;59602;52.142;5.408;2024-01-25T00:37:36;102869.13;;;8.27;93.29
71764;BME280;59602;52.142;5.408;2024-01-25T00:40:44;102874.84;;;8.26;93.34
71764;BME280;59602;52.142;5.408;2024-01-25T00:44:12;102875.50;;;8.23;93.42
71764;BME280;59602;52.142;5.408;2024-01-25T00:47:29;102872.94;;;8.18;93.64
71764;BME280;59602;52.142;5.408;2024-01-25T00:54:18;102886.94;;;8.11;94.23
71764;BME280;59602;52.142;5.408;2024-01-25T00:57:26;102893.44;;;8.10;94.06
71764;BME280;59602;52.142;5.408;2024-01-25T01:00:41;102896.47;;;8.08;94.09
71764;BME280;59602;52.142;5.408;2024-01-25T01:07:39;102900.28;;;8.07;94.29
71764;BME280;59602;52.142;5.408;2024-01-25T01:14:33;102901.41;;;8.06;94.27
71764;BME280;59602;52.142;5.408;2024-01-25T01:17:37;102918.59;;;8.02;94.45
71764;BME280;59602;52.142;5.408;2024-01-25T01:20:49;102915.69;;;7.98;94.44
71764;BME280;59602;52.142;5.408;2024-01-25T01:27:16;102919.47;;;7.88;94.94
71764;BME280;59602;52.142;5.408;2024-01-25T01:34:09;102915.28;;;7.82;95.16
71764;BME280;59602;52.142;5.408;2024-01-25T01:37:23;102923.41;;;7.82;95.03
71764;BME280;59602;52.142;5.408;2024-01-25T01:40:58;102927.03;;;7.78;95.04
71764;BME280;59602;52.142;5.408;2024-01-25T01:51:08;102921.69;;;7.64;95.90
71764;BME280;59602;52.142;5.408;2024-01-25T01:57:45;102930.75;;;7.59;95.90
71764;BME280;59602;52.142;5.408;2024-01-25T02:00:55;102931.34;;;7.56;96.01
71764;BME280;59602;52.142;5.408;2024-01-25T02:06:43;102934.16;;;7.51;96.31
71764;BME280;59602;52.142;5.408;2024-01-25T02:10:06;102938.28;;;7.48;96.54
71764;BME280;59602;52.142;5.408;2024-01-25T02:12:42;102934.59;;;7.44;96.80
71764;BME280;59602;52.142;5.408;2024-01-25T02:15:18;102949.03;;;7.40;96.81
71764;BME280;59602;52.142;5.408;2024-01-25T02:18:08;102952.03;;;7.38;97.11
71764;BME280;59602;52.142;5.408;2024-01-25T02:21:03;102962.06;;;7.38;96.89
71764;BME280;59602;52.142;5.408;2024-01-25T02:23:32;102965.06;;;7.36;96.89
71764;BME280;59602;52.142;5.408;2024-01-25T02:29:30;102967.19;;;7.25;97.43
71764;BME280;59602;52.142;5.408;2024-01-25T02:32:43;102964.81;;;7.24;97.60
71764;BME280;59602;52.142;5.408;2024-01-25T02:35:16;102964.69;;;7.29;97.67
71764;BME280;59602;52.142;5.408;2024-01-25T02:38:12;102973.31;;;7.31;97.83
71764;BME280;59602;52.142;5.408;2024-01-25T02:40:45;102975.41;;;7.34;97.66
71764;BME280;59602;52.142;5.408;2024-01-25T02:43:46;102975.22;;;7.31;97.92
71764;BME280;59602;52.142;5.408;2024-01-25T02:46:16;102977.84;;;7.22;97.89
71764;BME280;59602;52.142;5.408;2024-01-25T02:49:23;102983.25;;;7.22;97.44
71764;BME280;59602;52.142;5.408;2024-01-25T02:51:58;102981.47;;;7.17;97.33
71764;BME280;59602;52.142;5.408;2024-01-25T02:54:34;102985.06;;;7.13;97.09
71764;BME280;59602;52.142;5.408;2024-01-25T02:57:39;102982.44;;;7.07;97.21
71764;BME280;59602;52.142;5.408;2024-01-25T03:00:09;102989.78;;;7.07;97.12
71764;BME280;59602;52.142;5.408;2024-01-25T03:02:52;102993.50;;;6.97;96.33
71764;BME280;59602;52.142;5.408;2024-01-25T03:05:22;102994.47;;;6.88;95.53
71764;BME280;59602;52.142;5.408;2024-01-25T03:08:32;102994.09;;;6.80;95.78
71764;BME280;59602;52.142;5.408;2024-01-25T03:11:04;102980.16;;;6.73;95.42
71764;BME280;59602;52.142;5.408;2024-01-25T03:13:37;102973.75;;;6.69;96.31
71764;BME280;59602;52.142;5.408;2024-01-25T03:16:10;102975.97;;;6.67;97.50
71764;BME280;59602;52.142;5.408;2024-01-25T03:22:19;102979.94;;;6.56;97.10
71764;BME280;59602;52.142;5.408;2024-01-25T03:24:46;102982.16;;;6.54;96.29
71764;BME280;59602;52.142;5.408;2024-01-25T03:27:16;102977.63;;;6.49;96.46
71764;BME280;59602;52.142;5.408;2024-01-25T03:29:45;102980.34;;;6.49;96.78
71764;BME280;59602;52.142;5.408;2024-01-25T03:32:15;102981.44;;;6.48;95.96
71764;BME280;59602;52.142;5.408;2024-01-25T03:34:41;102986.44;;;6.41;96.15
71764;BME280;59602;52.142;5.408;2024-01-25T03:37:10;102992.44;;;6.38;96.77
71764;BME280;59602;52.142;5.408;2024-01-25T03:39:37;102982.00;;;6.31;96.18
71764;BME280;59602;52.142;5.408;2024-01-25T03:42:06;102981.81;;;6.28;96.72
71764;BME280;59602;52.142;5.408;2024-01-25T03:44:38;102984.59;;;6.22;98.09
71764;BME280;59602;52.142;5.408;2024-01-25T03:47:27;102965.16;;;6.20;98.27
71764;BME280;59602;52.142;5.408;2024-01-25T03:50:01;102967.47;;;6.13;98.82
71764;BME280;59602;52.142;5.408;2024-01-25T03:52:35;102963.59;;;6.19;99.36
71764;BME280;59602;52.142;5.408;2024-01-25T03:55:05;102969.09;;;6.28;99.52
71764;BME280;59602;52.142;5.408;2024-01-25T03:57:32;102971.81;;;6.28;99.51
71764;BME280;59602;52.142;5.408;2024-01-25T03:59:59;102972.59;;;6.29;100.00
71764;BME280;59602;52.142;5.408;2024-01-25T04:02:30;102973.72;;;6.28;98.79
71764;BME280;59602;52.142;5.408;2024-01-25T04:05:03;102982.19;;;6.21;98.52
71764;BME280;59602;52.142;5.408;2024-01-25T04:07:30;102983.66;;;6.13;98.21
71764;BME280;59602;52.142;5.408;2024-01-25T04:09:58;102979.94;;;6.09;97.23
71764;BME280;59602;52.142;5.408;2024-01-25T04:12:25;102974.94;;;6.02;97.37
71764;BME280;59602;52.142;5.408;2024-01-25T04:14:52;102972.22;;;6.02;98.14
71764;BME280;59602;52.142;5.408;2024-01-25T04:17:20;102972.31;;;5.97;97.36
71764;BME280;59602;52.142;5.408;2024-01-25T04:19:54;102981.03;;;5.89;97.94
71764;BME280;59602;52.142;5.408;2024-01-25T04:25:24;102971.50;;;5.78;97.62
71764;BME280;59602;52.142;5.408;2024-01-25T04:28:01;102979.91;;;5.76;97.97
71764;BME280;59602;52.142;5.408;2024-01-25T04:30:30;102979.25;;;5.66;97.60
71764;BME280;59602;52.142;5.408;2024-01-25T04:32:59;102979.78;;;5.68;98.37
71764;BME280;59602;52.142;5.408;2024-01-25T04:35:35;102982.97;;;5.70;98.41
71764;BME280;59602;52.142;5.408;2024-01-25T04:38:08;102988.16;;;5.66;97.75
71764;BME280;59602;52.142;5.408;2024-01-25T04:40:38;102986.63;;;5.60;98.01
71764;BME280;59602;52.142;5.408;2024-01-25T04:43:07;102985.03;;;5.59;98.38
71764;BME280;59602;52.142;5.408;2024-01-25T04:45:38;102990.41;;;5.59;98.22
71764;BME280;59602;52.142;5.408;2024-01-25T04:48:08;102980.41;;;5.59;99.33
71764;BME280;59602;52.142;5.408;2024-01-25T04:50:37;102984.94;;;5.64;99.25
71764;BME280;59602;52.142;5.408;2024-01-25T04:53:06;102985.22;;;5.62;99.21
71764;BME280;59602;52.142;5.408;2024-01-25T04:58:27;102994.16;;;5.63;99.32
71764;BME280;59602;52.142;5.408;2024-01-25T05:00:54;102985.03;;;5.59;99.38
71764;BME280;59602;52.142;5.408;2024-01-25T05:03:26;102979.13;;;5.57;99.89
71764;BME280;59602;52.142;5.408;2024-01-25T05:05:57;102982.59;;;5.57;100.00
71764;BME280;59602;52.142;5.408;2024-01-25T05:08:28;102991.44;;;5.63;100.00
71764;BME280;59602;52.142;5.408;2024-01-25T05:10:57;102989.25;;;5.65;100.00
71764;BME280;59602;52.142;5.408;2024-01-25T05:13:27;102992.53;;;5.62;99.98
71764;BME280;59602;52.142;5.408;2024-01-25T05:16:15;102990.34;;;5.64;100.00
71764;BME280;59602;52.142;5.408;2024-01-25T05:18:41;102995.16;;;5.67;100.00
71764;BME280;59602;52.142;5.408;2024-01-25T05:21:08;102993.78;;;5.70;100.00
71764;BME280;59602;52.142;5.408;2024-01-25T05:23:39;103007.41;;;5.59;99.93
71764;BME280;59602;52.142;5.408;2024-01-25T05:26:17;103000.69;;;5.57;100.00
71764;BME280;59602;52.142;5.408;2024-01-25T05:28:50;102996.91;;;5.58;100.00
71764;BME280;59602;52.142;5.408;2024-01-25T05:31:27;102991.38;;;5.49;100.00
71764;BME280;59602;52.142;5.408;2024-01-25T05:34:17;102994.13;;;5.44;100.00
71764;BME280;59602;52.142;5.408;2024-01-25T05:36:47;102998.66;;;5.49;100.00
71764;BME280;59602;52.142;5.408;2024-01-25T05:39:16;103008.78;;;5.57;100.00
71764;BME280;59602;52.142;5.408;2024-01-25T05:42:06;103016.59;;;5.58;100.00
71764;BME280;59602;52.142;5.408;2024-01-25T05:44:38;103016.38;;;5.55;100.00
71764;BME280;59602;52.142;5.408;2024-01-25T05:47:35;103009.38;;;5.54;100.00
71764;BME280;59602;52.142;5.408;2024-01-25T05:50:07;103015.59;;;5.54;100.00
71764;BME280;59602;52.142;5.408;2024-01-25T05:53:02;103019.34;;;5.53;100.00
71764;BME280;59602;52.142;5.408;2024-01-25T05:55:34;103019.06;;;5.55;100.00
71764;BME280;59602;52.142;5.408;2024-01-25T05:58:09;103016.66;;;5.53;100.00
71764;BME280;59602;52.142;5.408;2024-01-25T06:00:36;103010.75;;;5.51;100.00
71764;BME280;59602;52.142;5.408;2024-01-25T06:03:06;103012.97;;;5.49;100.00
71764;BME280;59602;52.142;5.408;2024-01-25T06:05:33;103013.44;;;5.51;100.00
71764;BME280;59602;52.142;5.408;2024-01-25T06:08:00;103020.66;;;5.56;100.00
71764;BME280;59602;52.142;5.408;2024-01-25T06:10:33;103026.22;;;5.65;100.00
71764;BME280;59602;52.142;5.408;2024-01-25T06:13:00;103022.72;;;5.64;100.00
71764;BME280;59602;52.142;5.408;2024-01-25T06:15:35;103024.84;;;5.67;100.00
71764;BME280;59602;52.142;5.408;2024-01-25T06:18:02;103016.75;;;5.67;100.00
71764;BME280;59602;52.142;5.408;2024-01-25T06:20:32;103020.63;;;5.61;100.00
71764;BME280;59602;52.142;5.408;2024-01-25T06:23:04;103023.88;;;5.58;100.00
71764;BME280;59602;52.142;5.408;2024-01-25T06:25:31;103027.31;;;5.64;100.00
71764;BME280;59602;52.142;5.408;2024-01-25T06:28:43;103031.63;;;5.65;100.00
71764;BME280;59602;52.142;5.408;2024-01-25T06:31:09;103029.94;;;5.69;100.00
71764;BME280;59602;52.142;5.408;2024-01-25T06:33:46;103036.97;;;5.70;100.00
71764;BME280;59602;52.142;5.408;2024-01-25T06:36:30;103035.94;;;5.66;100.00
71764;BME280;59602;52.142;5.408;2024-01-25T06:39:24;103032.50;;;5.60;100.00
71764;BME280;59602;52.142;5.408;2024-01-25T06:41:50;103031.47;;;5.56;100.00
71764;BME280;59602;52.142;5.408;2024-01-25T06:44:17;103035.84;;;5.52;100.00
71764;BME280;59602;52.142;5.408;2024-01-25T06:46:46;103050.59;;;5.59;100.00
71764;BME280;59602;52.142;5.408;2024-01-25T06:49:28;103041.47;;;5.55;100.00
71764;BME280;59602;52.142;5.408;2024-01-25T06:51:55;103031.78;;;5.54;100.00
71764;BME280;59602;52.142;5.408;2024-01-25T06:54:55;103037.16;;;5.54;100.00
71764;BME280;59602;52.142;5.408;2024-01-25T06:58:52;103037.25;;;5.49;100.00
71764;BME280;59602;52.142;5.408;2024-01-25T07:01:54;103039.94;;;5.49;100.00
71764;BME280;59602;52.142;5.408;2024-01-25T07:04:51;103041.47;;;5.55;100.00
71764;BME280;59602;52.142;5.408;2024-01-25T07:11:17;103046.94;;;5.50;100.00
71764;BME280;59602;52.142;5.408;2024-01-25T07:14:08;103045.63;;;5.48;100.00
71764;BME280;59602;52.142;5.408;2024-01-25T07:30:28;103060.41;;;5.50;100.00
71764;BME280;59602;52.142;5.408;2024-01-25T07:33:41;103049.03;;;5.53;100.00
71764;BME280;59602;52.142;5.408;2024-01-25T07:39:59;103029.59;;;5.56;100.00
71764;BME280;59602;52.142;5.408;2024-01-25T07:43:03;103034.63;;;5.63;100.00
71764;BME280;59602;52.142;5.408;2024-01-25T07:45:34;103028.47;;;5.57;100.00
71764;BME280;59602;52.142;5.408;2024-01-25T07:48:09;103036.50;;;5.62;100.00
71764;BME280;59602;52.142;5.408;2024-01-25T07:51:17;103034.53;;;5.68;100.00
71764;BME280;59602;52.142;5.408;2024-01-25T07:54:43;103029.28;;;5.77;100.00
71764;BME280;59602;52.142;5.408;2024-01-25T07:57:45;103036.00;;;5.79;100.00
71764;BME280;59602;52.142;5.408;2024-01-25T08:16:11;103041.25;;;5.71;100.00
71764;BME280;59602;52.142;5.408;2024-01-25T08:22:49;103064.38;;;5.77;100.00
71764;BME280;59602;52.142;5.408;2024-01-25T08:26:05;103069.78;;;5.77;100.00
71764;BME280;59602;52.142;5.408;2024-01-25T08:41:16;103057.22;;;5.86;100.00
71764;BME280;59602;52.142;5.408;2024-01-25T09:37:25;103064.09;;;7.10;100.00
71764;BME280;59602;52.142;5.408;2024-01-25T10:55:23;103041.34;;;8.56;100.00
71764;BME280;59602;52.142;5.408;2024-01-25T13:34:18;102809.47;;;9.84;94.36
71764;BME280;59602;52.142;5.408;2024-01-25T13:41:12;102806.63;;;9.81;94.19
71764;BME280;59602;52.142;5.408;2024-01-25T13:43:42;102806.16;;;9.79;93.97
71764;BME280;59602;52.142;5.408;2024-01-25T13:46:09;102807.25;;;9.77;94.27
71764;BME280;59602;52.142;5.408;2024-01-25T13:48:38;102806.94;;;9.79;94.50
71764;BME280;59602;52.142;5.408;2024-01-25T13:51:09;102802.94;;;9.76;95.12
71764;BME280;59602;52.142;5.408;2024-01-25T13:53:37;102800.91;;;9.73;94.79
71764;BME280;59602;52.142;5.408;2024-01-25T13:56:20;102796.56;;;9.72;94.96
71764;BME280;59602;52.142;5.408;2024-01-25T13:59:01;102792.41;;;9.75;95.54
71764;BME280;59602;52.142;5.408;2024-01-25T14:01:28;102792.09;;;9.76;95.77
71764;BME280;59602;52.142;5.408;2024-01-25T14:03:55;102779.63;;;9.75;95.29
71764;BME280;59602;52.142;5.408;2024-01-25T14:06:21;102780.75;;;9.74;95.48
71764;BME280;59602;52.142;5.408;2024-01-25T14:08:48;102779.63;;;9.75;95.51
71764;BME280;59602;52.142;5.408;2024-01-25T14:11:16;102771.03;;;9.73;95.66
71764;BME280;59602;52.142;5.408;2024-01-25T14:13:43;102771.66;;;9.70;95.59
71764;BME280;59602;52.142;5.408;2024-01-25T14:16:10;102767.81;;;9.71;95.58
71764;BME280;59602;52.142;5.408;2024-01-25T14:19:06;102766.38;;;9.74;95.94
71764;BME280;59602;52.142;5.408;2024-01-25T14:21:34;102773.09;;;9.68;95.66
71764;BME280;59602;52.142;5.408;2024-01-25T14:24:00;102764.63;;;9.69;95.92
71764;BME280;59602;52.142;5.408;2024-01-25T14:26:27;102763.81;;;9.69;95.82
71764;BME280;59602;52.142;5.408;2024-01-25T14:28:57;102758.06;;;9.70;96.21
71764;BME280;59602;52.142;5.408;2024-01-25T14:31:29;102767.34;;;9.69;95.63
71764;BME280;59602;52.142;5.408;2024-01-25T14:33:56;102769.91;;;9.66;95.81
71764;BME280;59602;52.142;5.408;2024-01-25T14:36:23;102766.41;;;9.65;95.92
71764;BME280;59602;52.142;5.408;2024-01-25T14:38:53;102767.38;;;9.61;95.95
71764;BME280;59602;52.142;5.408;2024-01-25T14:41:20;102758.75;;;9.59;96.77
71764;BME280;59602;52.142;5.408;2024-01-25T14:43:47;102758.56;;;9.64;97.02
71764;BME280;59602;52.142;5.408;2024-01-25T14:46:15;102758.88;;;9.62;97.32
71764;BME280;59602;52.142;5.408;2024-01-25T14:48:45;102764.03;;;9.55;97.29
71764;BME280;59602;52.142;5.408;2024-01-25T14:51:12;102758.94;;;9.53;97.66
71764;BME280;59602;52.142;5.408;2024-01-25T14:53:39;102756.03;;;9.59;97.77
71764;BME280;59602;52.142;5.408;2024-01-25T14:56:06;102754.13;;;9.59;98.05
71764;BME280;59602;52.142;5.408;2024-01-25T14:58:34;102742.78;;;9.57;98.85
